createdAt,value
2018-06-17T00:01:09.000Z,43.432
2018-06-17T00:11:09.000Z,43.518
2018-06-17T00:21:09.000Z,43.604
2018-06-17T00:31:09.000Z,43.656
2018-06-17T00:41:09.000Z,43.795
2018-06-17T00:51:09.000Z,43.794
2018-06-17T01:01:09.000Z,43.921
2018-06-17T01:11:09.000Z,43.987
2018-06-17T01:21:09.000Z,44.016
2018-06-17T01:31:09.000Z,44.145
2018-06-17T01:41:09.000Z,44.241
2018-06-17T01:51:09.000Z,44.369
2018-06-17T02:01:09.000Z,44.356
2018-06-17T02:11:09.000Z,44.364
2018-06-17T02:21:09.000Z,44.458
2018-06-17T02:31:09.000Z,44.454
2018-06-17T02:41:09.000Z,44.513
2018-06-17T02:51:09.000Z,44.444
2018-06-17T03:01:09.000Z,44.385
2018-06-17T03:11:09.000Z,44.285
2018-06-17T03:21:09.000Z,44.356
2018-06-17T03:31:09.000Z,44.267
2018-06-17T03:41:09.000Z,44.188
2018-06-17T03:51:09.000Z,44.184
2018-06-17T04:01:09.000Z,44.095
2018-06-17T04:11:09.000Z,44.092
2018-06-17T04:21:09.000Z,44.037
2018-06-17T04:31:09.000Z,44.011
2018-06-17T04:41:09.000Z,43.913
2018-06-17T04:51:10.000Z,43.973
2018-06-17T05:01:10.000Z,43.553
2018-06-17T05:11:10.000Z,43.604
2018-06-17T05:21:10.000Z,43.216
2018-06-17T05:31:10.000Z,42.958
2018-06-17T05:41:10.000Z,42.621
2018-06-17T05:51:10.000Z,42.221
2018-06-17T06:01:10.000Z,42.025
2018-06-17T06:11:10.000Z,41.798
2018-06-17T06:21:10.000Z,41.607
2018-06-17T06:31:10.000Z,41.53
2018-06-17T06:41:10.000Z,41.349
2018-06-17T06:51:10.000Z,41.065
2018-06-17T07:01:10.000Z,40.819
2018-06-17T07:11:10.000Z,40.62
2018-06-17T07:21:10.000Z,39.99
2018-06-17T07:31:10.000Z,40.009
2018-06-17T07:41:10.000Z,39.971
2018-06-17T07:51:10.000Z,39.933
2018-06-17T08:01:11.000Z,39.522
2018-06-17T08:11:10.000Z,39.434
2018-06-17T08:21:10.000Z,39.078
2018-06-17T08:31:10.000Z,39
2018-06-17T08:41:10.000Z,39.25
2018-06-17T08:51:10.000Z,39.436
2018-06-17T09:01:10.000Z,39.116
2018-06-17T09:11:10.000Z,38.666
2018-06-17T09:21:10.000Z,38.972
2018-06-17T09:31:12.000Z,38.771
2018-06-17T09:41:10.000Z,38.54
2018-06-17T09:51:10.000Z,38.871
2018-06-17T10:01:10.000Z,38.653
2018-06-17T10:11:10.000Z,38.521
2018-06-17T10:21:12.000Z,38.667
2018-06-17T10:31:10.000Z,38.373
2018-06-17T10:41:10.000Z,38.272
2018-06-17T10:51:10.000Z,38.045
2018-06-17T11:01:10.000Z,37.957
2018-06-17T11:11:10.000Z,37.773
2018-06-17T11:21:10.000Z,38.318
2018-06-17T11:31:10.000Z,38.518
2018-06-17T11:41:10.000Z,37.733
2018-06-17T11:51:10.000Z,38.147
2018-06-17T12:01:10.000Z,37.795
2018-06-17T12:11:10.000Z,36.408
2018-06-17T12:21:10.000Z,37.698
2018-06-17T12:31:10.000Z,37.661
2018-06-17T12:41:10.000Z,38.591
2018-06-17T12:51:10.000Z,41.62
2018-06-17T13:01:11.000Z,40.011
2018-06-17T13:11:11.000Z,39.192
2018-06-17T13:21:11.000Z,38.031
2018-06-17T13:31:11.000Z,37.546
2018-06-17T13:41:11.000Z,36.528
2018-06-17T13:51:11.000Z,36.644
2018-06-17T14:01:11.000Z,35.673
2018-06-17T14:11:11.000Z,35.701
2018-06-17T14:21:11.000Z,36.001
2018-06-17T14:31:11.000Z,36.405
2018-06-17T14:41:11.000Z,36.151
2018-06-17T14:51:11.000Z,37.091
2018-06-17T15:01:11.000Z,37.461
2018-06-17T15:11:11.000Z,37.056
2018-06-17T15:21:11.000Z,37.083
2018-06-17T15:31:11.000Z,36.808
2018-06-17T15:41:11.000Z,36.968
2018-06-17T15:51:11.000Z,36.934
2018-06-17T16:01:11.000Z,37.006
2018-06-17T16:11:11.000Z,36.666
2018-06-17T16:21:11.000Z,37.301
2018-06-17T16:31:11.000Z,37.267
2018-06-17T16:41:11.000Z,37.242
2018-06-17T16:51:11.000Z,37.518
2018-06-17T17:01:11.000Z,37.768
2018-06-17T17:11:11.000Z,37.982
2018-06-17T17:21:11.000Z,38.085
2018-06-17T17:31:11.000Z,38.493
2018-06-17T17:41:11.000Z,38.801
2018-06-17T17:51:11.000Z,38.946
2018-06-17T18:01:11.000Z,39.066
2018-06-17T18:11:11.000Z,39.385
2018-06-17T18:21:11.000Z,39.801
2018-06-17T18:31:11.000Z,39.757
2018-06-17T18:41:11.000Z,40.151
2018-06-17T18:51:11.000Z,39.968
2018-06-17T19:01:11.000Z,40.262
2018-06-17T19:11:11.000Z,40.11
2018-06-17T19:21:11.000Z,40.274
2018-06-17T19:31:11.000Z,40.525
2018-06-17T19:41:11.000Z,40.677
2018-06-17T19:51:11.000Z,40.852
2018-06-17T20:01:11.000Z,41.211
2018-06-17T20:11:11.000Z,41.389
2018-06-17T20:21:11.000Z,41.462
2018-06-17T20:31:13.000Z,41.504
2018-06-17T20:41:11.000Z,41.513
2018-06-17T20:51:11.000Z,41.729
2018-06-17T21:01:12.000Z,41.761
2018-06-17T21:11:12.000Z,41.953
2018-06-17T21:21:13.000Z,42.003
2018-06-17T21:31:12.000Z,42.02
2018-06-17T21:41:12.000Z,42.005
2018-06-17T21:51:12.000Z,41.969
2018-06-17T22:01:12.000Z,41.91
2018-06-17T22:11:12.000Z,41.971
2018-06-17T22:21:13.000Z,42.055
2018-06-17T22:31:12.000Z,42.138
2018-06-17T22:41:12.000Z,42.145
2018-06-17T22:51:12.000Z,42.143
2018-06-17T23:01:12.000Z,42.138
2018-06-17T23:11:12.000Z,42.145
2018-06-17T23:21:12.000Z,42.143
2018-06-17T23:31:12.000Z,42.139
2018-06-17T23:41:12.000Z,42.147
2018-06-17T23:51:12.000Z,42.176
